sensor_id;sensor_type;location;lat;lon;timestamp;P1;durP1;ratioP1;P2;durP2;ratioP2
7645;SDS011;3864;48.180;14.178;2023-03-16T00:00:07;10.85;;;5.80;;
7645;SDS011;3864;48.180;14.178;2023-03-16T00:02:38;10.73;;;6.95;;
7645;SDS011;3864;48.180;14.178;2023-03-16T00:05:05;8.77;;;5.97;;
7645;SDS011;3864;48.180;14.178;2023-03-16T00:07:32;9.27;;;5.95;;
7645;SDS011;3864;48.180;14.178;2023-03-16T00:09:59;13.30;;;6.45;;
7645;SDS011;3864;48.180;14.178;2023-03-16T00:12:26;11.02;;;6.07;;
7645;SDS011;3864;48.180;14.178;2023-03-16T00:14:52;8.90;;;5.65;;
7645;SDS011;3864;48.180;14.178;2023-03-16T00:17:21;9.43;;;6.38;;
7645;SDS011;3864;48.180;14.178;2023-03-16T00:19:49;9.95;;;5.93;;
7645;SDS011;3864;48.180;14.178;2023-03-16T00:22:19;9.85;;;6.35;;
7645;SDS011;3864;48.180;14.178;2023-03-16T00:24:46;9.57;;;5.97;;
7645;SDS011;3864;48.180;14.178;2023-03-16T00:27:13;11.68;;;6.70;;
7645;SDS011;3864;48.180;14.178;2023-03-16T00:32:12;9.43;;;6.05;;
7645;SDS011;3864;48.180;14.178;2023-03-16T00:34:42;13.63;;;6.65;;
7645;SDS011;3864;48.180;14.178;2023-03-16T00:37:09;15.13;;;6.93;;
7645;SDS011;3864;48.180;14.178;2023-03-16T00:39:38;9.98;;;6.70;;
7645;SDS011;3864;48.180;14.178;2023-03-16T00:42:06;12.13;;;7.20;;
7645;SDS011;3864;48.180;14.178;2023-03-16T00:44:33;10.77;;;6.60;;
7645;SDS011;3864;48.180;14.178;2023-03-16T00:47:00;10.32;;;6.45;;
7645;SDS011;3864;48.180;14.178;2023-03-16T00:49:27;10.50;;;7.10;;
7645;SDS011;3864;48.180;14.178;2023-03-16T00:51:55;11.27;;;6.90;;
7645;SDS011;3864;48.180;14.178;2023-03-16T00:54:22;10.40;;;6.32;;
7645;SDS011;3864;48.180;14.178;2023-03-16T00:56:51;10.82;;;6.28;;
7645;SDS011;3864;48.180;14.178;2023-03-16T00:59:18;10.70;;;6.18;;
7645;SDS011;3864;48.180;14.178;2023-03-16T01:01:45;10.85;;;6.90;;
7645;SDS011;3864;48.180;14.178;2023-03-16T01:04:12;10.82;;;7.07;;
7645;SDS011;3864;48.180;14.178;2023-03-16T01:06:39;11.55;;;6.55;;
7645;SDS011;3864;48.180;14.178;2023-03-16T01:09:08;9.45;;;5.68;;
7645;SDS011;3864;48.180;14.178;2023-03-16T01:11:35;9.45;;;6.28;;
7645;SDS011;3864;48.180;14.178;2023-03-16T01:14:02;11.25;;;6.35;;
7645;SDS011;3864;48.180;14.178;2023-03-16T01:16:29;10.90;;;6.72;;
7645;SDS011;3864;48.180;14.178;2023-03-16T01:18:58;10.15;;;7.07;;
7645;SDS011;3864;48.180;14.178;2023-03-16T01:21:25;11.82;;;6.40;;
7645;SDS011;3864;48.180;14.178;2023-03-16T01:23:52;11.48;;;6.93;;
7645;SDS011;3864;48.180;14.178;2023-03-16T01:26:21;12.10;;;7.88;;
7645;SDS011;3864;48.180;14.178;2023-03-16T01:28:49;12.80;;;6.90;;
7645;SDS011;3864;48.180;14.178;2023-03-16T01:33:43;9.07;;;6.05;;
7645;SDS011;3864;48.180;14.178;2023-03-16T01:36:10;13.63;;;6.90;;
7645;SDS011;3864;48.180;14.178;2023-03-16T01:38:38;11.85;;;7.35;;
7645;SDS011;3864;48.180;14.178;2023-03-16T01:41:05;13.10;;;7.53;;
7645;SDS011;3864;48.180;14.178;2023-03-16T01:43:34;12.20;;;6.85;;
7645;SDS011;3864;48.180;14.178;2023-03-16T01:48:47;14.25;;;7.30;;
7645;SDS011;3864;48.180;14.178;2023-03-16T01:51:16;12.52;;;8.15;;
7645;SDS011;3864;48.180;14.178;2023-03-16T01:53:45;16.48;;;8.30;;
7645;SDS011;3864;48.180;14.178;2023-03-16T01:56:13;15.98;;;8.93;;
7645;SDS011;3864;48.180;14.178;2023-03-16T01:58:44;14.48;;;8.32;;
7645;SDS011;3864;48.180;14.178;2023-03-16T02:01:11;15.27;;;8.00;;
7645;SDS011;3864;48.180;14.178;2023-03-16T02:03:38;11.52;;;7.18;;
7645;SDS011;3864;48.180;14.178;2023-03-16T02:06:07;17.83;;;8.32;;
7645;SDS011;3864;48.180;14.178;2023-03-16T02:08:35;11.05;;;7.47;;
7645;SDS011;3864;48.180;14.178;2023-03-16T02:11:03;12.48;;;7.07;;
7645;SDS011;3864;48.180;14.178;2023-03-16T02:13:31;13.77;;;7.75;;
7645;SDS011;3864;48.180;14.178;2023-03-16T02:16:02;12.65;;;7.68;;
7645;SDS011;3864;48.180;14.178;2023-03-16T02:18:29;17.38;;;7.65;;
7645;SDS011;3864;48.180;14.178;2023-03-16T02:20:59;13.73;;;7.88;;
7645;SDS011;3864;48.180;14.178;2023-03-16T02:23:30;14.63;;;7.95;;
7645;SDS011;3864;48.180;14.178;2023-03-16T02:25:58;13.85;;;7.85;;
7645;SDS011;3864;48.180;14.178;2023-03-16T02:28:28;15.15;;;7.45;;
7645;SDS011;3864;48.180;14.178;2023-03-16T02:30:59;14.18;;;8.05;;
7645;SDS011;3864;48.180;14.178;2023-03-16T02:33:27;15.95;;;7.47;;
7645;SDS011;3864;48.180;14.178;2023-03-16T02:35:55;13.40;;;7.53;;
7645;SDS011;3864;48.180;14.178;2023-03-16T02:38:22;14.75;;;8.05;;
7645;SDS011;3864;48.180;14.178;2023-03-16T02:40:53;12.93;;;7.90;;
7645;SDS011;3864;48.180;14.178;2023-03-16T02:43:23;15.02;;;8.65;;
7645;SDS011;3864;48.180;14.178;2023-03-16T02:45:51;14.20;;;8.43;;
7645;SDS011;3864;48.180;14.178;2023-03-16T02:48:21;14.18;;;8.65;;
7645;SDS011;3864;48.180;14.178;2023-03-16T02:50:51;14.10;;;8.15;;
7645;SDS011;3864;48.180;14.178;2023-03-16T02:53:18;14.27;;;7.95;;
7645;SDS011;3864;48.180;14.178;2023-03-16T02:55:45;14.93;;;8.80;;
7645;SDS011;3864;48.180;14.178;2023-03-16T02:58:12;14.68;;;7.53;;
7645;SDS011;3864;48.180;14.178;2023-03-16T03:00:39;14.30;;;9.25;;
7645;SDS011;3864;48.180;14.178;2023-03-16T03:03:06;13.32;;;7.55;;
7645;SDS011;3864;48.180;14.178;2023-03-16T03:05:35;16.73;;;9.27;;
7645;SDS011;3864;48.180;14.178;2023-03-16T03:08:03;17.63;;;9.02;;
7645;SDS011;3864;48.180;14.178;2023-03-16T03:10:30;17.00;;;9.55;;
7645;SDS011;3864;48.180;14.178;2023-03-16T03:12:57;16.88;;;9.15;;
7645;SDS011;3864;48.180;14.178;2023-03-16T03:15:24;14.48;;;8.95;;
7645;SDS011;3864;48.180;14.178;2023-03-16T03:17:51;19.00;;;10.23;;
7645;SDS011;3864;48.180;14.178;2023-03-16T03:20:17;16.60;;;9.48;;
7645;SDS011;3864;48.180;14.178;2023-03-16T03:22:47;17.00;;;9.15;;
7645;SDS011;3864;48.180;14.178;2023-03-16T03:25:17;15.27;;;9.18;;
7645;SDS011;3864;48.180;14.178;2023-03-16T03:27:45;13.93;;;8.75;;
7645;SDS011;3864;48.180;14.178;2023-03-16T03:30:13;13.95;;;8.18;;
7645;SDS011;3864;48.180;14.178;2023-03-16T03:32:41;15.55;;;9.57;;
7645;SDS011;3864;48.180;14.178;2023-03-16T03:35:08;17.23;;;9.88;;
7645;SDS011;3864;48.180;14.178;2023-03-16T03:37:36;15.88;;;8.60;;
7645;SDS011;3864;48.180;14.178;2023-03-16T03:40:06;15.73;;;7.97;;
7645;SDS011;3864;48.180;14.178;2023-03-16T03:42:34;14.90;;;8.43;;
7645;SDS011;3864;48.180;14.178;2023-03-16T03:45:01;15.80;;;9.18;;
7645;SDS011;3864;48.180;14.178;2023-03-16T03:47:28;15.55;;;8.73;;
7645;SDS011;3864;48.180;14.178;2023-03-16T03:49:54;16.17;;;8.80;;
7645;SDS011;3864;48.180;14.178;2023-03-16T03:52:21;20.75;;;10.07;;
7645;SDS011;3864;48.180;14.178;2023-03-16T03:54:48;16.50;;;9.27;;
7645;SDS011;3864;48.180;14.178;2023-03-16T03:57:17;14.27;;;8.90;;
7645;SDS011;3864;48.180;14.178;2023-03-16T03:59:44;14.30;;;8.65;;
7645;SDS011;3864;48.180;14.178;2023-03-16T04:02:11;14.48;;;8.50;;
7645;SDS011;3864;48.180;14.178;2023-03-16T04:04:38;15.10;;;8.75;;
7645;SDS011;3864;48.180;14.178;2023-03-16T04:07:05;13.65;;;8.40;;
7645;SDS011;3864;48.180;14.178;2023-03-16T04:11:59;13.68;;;7.88;;
7645;SDS011;3864;48.180;14.178;2023-03-16T04:14:27;13.50;;;8.40;;
7645;SDS011;3864;48.180;14.178;2023-03-16T04:16:54;13.90;;;8.30;;
7645;SDS011;3864;48.180;14.178;2023-03-16T04:21:48;9.73;;;6.40;;
7645;SDS011;3864;48.180;14.178;2023-03-16T04:24:15;10.57;;;6.97;;
7645;SDS011;3864;48.180;14.178;2023-03-16T04:26:42;16.48;;;8.32;;
7645;SDS011;3864;48.180;14.178;2023-03-16T04:29:10;15.45;;;9.38;;
7645;SDS011;3864;48.180;14.178;2023-03-16T04:31:39;16.20;;;8.75;;
7645;SDS011;3864;48.180;14.178;2023-03-16T04:34:07;14.40;;;8.80;;
7645;SDS011;3864;48.180;14.178;2023-03-16T04:36:33;17.42;;;9.98;;
7645;SDS011;3864;48.180;14.178;2023-03-16T04:39:00;14.57;;;8.30;;
7645;SDS011;3864;48.180;14.178;2023-03-16T04:41:27;15.65;;;9.45;;
7645;SDS011;3864;48.180;14.178;2023-03-16T04:43:54;16.92;;;9.23;;
7645;SDS011;3864;48.180;14.178;2023-03-16T04:46:23;17.30;;;9.13;;
7645;SDS011;3864;48.180;14.178;2023-03-16T04:48:52;14.05;;;8.35;;
7645;SDS011;3864;48.180;14.178;2023-03-16T04:51:22;14.82;;;8.18;;
7645;SDS011;3864;48.180;14.178;2023-03-16T04:53:49;19.98;;;10.07;;
7645;SDS011;3864;48.180;14.178;2023-03-16T04:56:16;17.92;;;9.85;;
7645;SDS011;3864;48.180;14.178;2023-03-16T04:58:43;22.48;;;10.05;;
7645;SDS011;3864;48.180;14.178;2023-03-16T05:01:10;20.80;;;10.27;;
7645;SDS011;3864;48.180;14.178;2023-03-16T05:03:37;17.38;;;9.57;;
7645;SDS011;3864;48.180;14.178;2023-03-16T05:06:06;19.48;;;10.18;;
7645;SDS011;3864;48.180;14.178;2023-03-16T05:08:32;18.63;;;10.38;;
7645;SDS011;3864;48.180;14.178;2023-03-16T05:11:01;16.88;;;9.18;;
7645;SDS011;3864;48.180;14.178;2023-03-16T05:14:55;15.55;;;9.93;;
7645;SDS011;3864;48.180;14.178;2023-03-16T05:16:40;15.25;;;8.63;;
7645;SDS011;3864;48.180;14.178;2023-03-16T05:19:07;15.88;;;8.57;;
7645;SDS011;3864;48.180;14.178;2023-03-16T05:21:36;14.90;;;9.82;;
7645;SDS011;3864;48.180;14.178;2023-03-16T05:24:03;16.00;;;9.55;;
7645;SDS011;3864;48.180;14.178;2023-03-16T05:26:30;18.80;;;9.65;;
7645;SDS011;3864;48.180;14.178;2023-03-16T05:28:58;16.50;;;8.60;;
7645;SDS011;3864;48.180;14.178;2023-03-16T05:31:24;15.82;;;8.52;;
7645;SDS011;3864;48.180;14.178;2023-03-16T05:33:51;17.38;;;9.20;;
7645;SDS011;3864;48.180;14.178;2023-03-16T05:36:18;14.52;;;8.73;;
7645;SDS011;3864;48.180;14.178;2023-03-16T05:38:47;17.52;;;9.57;;
7645;SDS011;3864;48.180;14.178;2023-03-16T05:41:14;16.55;;;8.98;;
7645;SDS011;3864;48.180;14.178;2023-03-16T05:43:42;13.00;;;8.52;;
7645;SDS011;3864;48.180;14.178;2023-03-16T05:46:09;13.95;;;7.75;;
7645;SDS011;3864;48.180;14.178;2023-03-16T05:48:36;14.10;;;8.70;;
7645;SDS011;3864;48.180;14.178;2023-03-16T05:51:03;15.70;;;9.43;;
7645;SDS011;3864;48.180;14.178;2023-03-16T05:53:31;17.08;;;9.57;;
7645;SDS011;3864;48.180;14.178;2023-03-16T05:55:59;15.43;;;9.63;;
7645;SDS011;3864;48.180;14.178;2023-03-16T05:58:26;21.75;;;10.30;;
7645;SDS011;3864;48.180;14.178;2023-03-16T06:00:53;22.33;;;11.55;;
7645;SDS011;3864;48.180;14.178;2023-03-16T06:03:20;15.95;;;9.70;;
7645;SDS011;3864;48.180;14.178;2023-03-16T06:05:47;19.65;;;10.35;;
7645;SDS011;3864;48.180;14.178;2023-03-16T06:08:14;17.27;;;9.65;;
7645;SDS011;3864;48.180;14.178;2023-03-16T06:10:41;15.95;;;9.32;;
7645;SDS011;3864;48.180;14.178;2023-03-16T06:13:09;15.98;;;9.23;;
7645;SDS011;3864;48.180;14.178;2023-03-16T06:15:36;17.42;;;9.38;;
7645;SDS011;3864;48.180;14.178;2023-03-16T06:18:03;15.52;;;10.00;;
7645;SDS011;3864;48.180;14.178;2023-03-16T06:20:30;14.02;;;9.63;;
7645;SDS011;3864;48.180;14.178;2023-03-16T06:22:56;18.73;;;10.07;;
7645;SDS011;3864;48.180;14.178;2023-03-16T06:25:23;17.35;;;9.50;;
7645;SDS011;3864;48.180;14.178;2023-03-16T06:27:50;20.40;;;9.88;;
7645;SDS011;3864;48.180;14.178;2023-03-16T06:30:19;19.27;;;10.85;;
7645;SDS011;3864;48.180;14.178;2023-03-16T06:32:46;19.65;;;9.93;;
7645;SDS011;3864;48.180;14.178;2023-03-16T06:35:13;17.70;;;11.25;;
7645;SDS011;3864;48.180;14.178;2023-03-16T06:37:40;21.08;;;12.48;;
7645;SDS011;3864;48.180;14.178;2023-03-16T06:40:07;21.50;;;11.88;;
7645;SDS011;3864;48.180;14.178;2023-03-16T06:42:34;23.17;;;12.82;;
7645;SDS011;3864;48.180;14.178;2023-03-16T06:45:01;20.45;;;11.70;;
7645;SDS011;3864;48.180;14.178;2023-03-16T06:47:29;22.02;;;12.05;;
7645;SDS011;3864;48.180;14.178;2023-03-16T06:49:56;24.67;;;11.65;;
7645;SDS011;3864;48.180;14.178;2023-03-16T06:52:23;24.67;;;13.38;;
7645;SDS011;3864;48.180;14.178;2023-03-16T06:54:50;23.05;;;13.50;;
7645;SDS011;3864;48.180;14.178;2023-03-16T06:57:16;23.77;;;12.43;;
7645;SDS011;3864;48.180;14.178;2023-03-16T06:59:43;20.90;;;12.52;;
7645;SDS011;3864;48.180;14.178;2023-03-16T07:02:10;24.70;;;13.60;;
7645;SDS011;3864;48.180;14.178;2023-03-16T07:04:40;24.55;;;12.10;;
7645;SDS011;3864;48.180;14.178;2023-03-16T07:07:07;22.88;;;12.13;;
7645;SDS011;3864;48.180;14.178;2023-03-16T07:09:34;25.00;;;12.68;;
7645;SDS011;3864;48.180;14.178;2023-03-16T07:12:01;24.27;;;12.57;;
7645;SDS011;3864;48.180;14.178;2023-03-16T07:14:28;28.35;;;13.52;;
7645;SDS011;3864;48.180;14.178;2023-03-16T07:19:21;27.30;;;13.52;;
7645;SDS011;3864;48.180;14.178;2023-03-16T07:21:50;30.20;;;14.90;;
7645;SDS011;3864;48.180;14.178;2023-03-16T07:24:16;24.85;;;14.38;;
7645;SDS011;3864;48.180;14.178;2023-03-16T07:26:43;26.55;;;13.77;;
7645;SDS011;3864;48.180;14.178;2023-03-16T07:29:11;27.80;;;13.75;;
7645;SDS011;3864;48.180;14.178;2023-03-16T07:31:38;27.98;;;16.48;;
7645;SDS011;3864;48.180;14.178;2023-03-16T07:34:05;27.75;;;15.73;;
7645;SDS011;3864;48.180;14.178;2023-03-16T07:36:32;22.52;;;14.60;;
7645;SDS011;3864;48.180;14.178;2023-03-16T07:39:00;25.40;;;14.32;;
7645;SDS011;3864;48.180;14.178;2023-03-16T07:41:27;27.50;;;16.08;;
7645;SDS011;3864;48.180;14.178;2023-03-16T07:43:54;31.60;;;15.50;;
7645;SDS011;3864;48.180;14.178;2023-03-16T07:46:22;29.88;;;15.88;;
7645;SDS011;3864;48.180;14.178;2023-03-16T07:48:49;32.97;;;18.00;;
7645;SDS011;3864;48.180;14.178;2023-03-16T07:51:17;34.45;;;18.10;;
7645;SDS011;3864;48.180;14.178;2023-03-16T07:53:44;36.85;;;17.15;;
7645;SDS011;3864;48.180;14.178;2023-03-16T07:56:12;37.75;;;17.27;;
7645;SDS011;3864;48.180;14.178;2023-03-16T07:58:39;29.75;;;14.82;;
7645;SDS011;3864;48.180;14.178;2023-03-16T08:01:06;23.27;;;14.05;;
7645;SDS011;3864;48.180;14.178;2023-03-16T08:03:33;25.60;;;14.52;;
7645;SDS011;3864;48.180;14.178;2023-03-16T08:06:00;21.02;;;12.27;;
7645;SDS011;3864;48.180;14.178;2023-03-16T08:08:27;21.55;;;12.25;;
7645;SDS011;3864;48.180;14.178;2023-03-16T08:10:53;21.17;;;11.05;;
7645;SDS011;3864;48.180;14.178;2023-03-16T08:13:22;18.63;;;10.40;;
7645;SDS011;3864;48.180;14.178;2023-03-16T08:15:51;17.95;;;10.00;;
7645;SDS011;3864;48.180;14.178;2023-03-16T08:18:22;21.42;;;11.40;;
7645;SDS011;3864;48.180;14.178;2023-03-16T08:20:49;15.90;;;10.20;;
7645;SDS011;3864;48.180;14.178;2023-03-16T08:25:42;19.63;;;10.45;;
7645;SDS011;3864;48.180;14.178;2023-03-16T08:28:10;21.17;;;11.15;;
7645;SDS011;3864;48.180;14.178;2023-03-16T08:30:42;17.10;;;10.00;;
7645;SDS011;3864;48.180;14.178;2023-03-16T08:33:09;18.73;;;10.05;;
7645;SDS011;3864;48.180;14.178;2023-03-16T08:35:36;15.75;;;9.57;;
7645;SDS011;3864;48.180;14.178;2023-03-16T08:38:06;16.52;;;9.70;;
7645;SDS011;3864;48.180;14.178;2023-03-16T08:40:34;17.17;;;9.27;;
7645;SDS011;3864;48.180;14.178;2023-03-16T08:43:01;18.42;;;9.90;;
7645;SDS011;3864;48.180;14.178;2023-03-16T08:45:28;18.10;;;10.20;;
7645;SDS011;3864;48.180;14.178;2023-03-16T08:47:56;17.38;;;10.20;;
7645;SDS011;3864;48.180;14.178;2023-03-16T08:50:23;14.52;;;7.90;;
7645;SDS011;3864;48.180;14.178;2023-03-16T08:52:51;16.38;;;9.45;;
7645;SDS011;3864;48.180;14.178;2023-03-16T08:55:18;16.50;;;8.80;;
7645;SDS011;3864;48.180;14.178;2023-03-16T08:57:45;14.07;;;8.70;;
7645;SDS011;3864;48.180;14.178;2023-03-16T09:00:13;14.82;;;8.77;;
7645;SDS011;3864;48.180;14.178;2023-03-16T09:02:42;14.52;;;8.65;;
7645;SDS011;3864;48.180;14.178;2023-03-16T09:05:10;13.90;;;9.00;;
7645;SDS011;3864;48.180;14.178;2023-03-16T09:07:38;12.77;;;7.85;;
7645;SDS011;3864;48.180;14.178;2023-03-16T09:10:07;12.95;;;8.30;;
7645;SDS011;3864;48.180;14.178;2023-03-16T09:12:37;13.55;;;8.73;;
7645;SDS011;3864;48.180;14.178;2023-03-16T09:15:05;12.77;;;9.07;;
7645;SDS011;3864;48.180;14.178;2023-03-16T09:17:34;10.23;;;7.15;;
7645;SDS011;3864;48.180;14.178;2023-03-16T09:20:03;11.18;;;7.47;;
7645;SDS011;3864;48.180;14.178;2023-03-16T09:22:35;13.45;;;7.60;;
7645;SDS011;3864;48.180;14.178;2023-03-16T09:25:03;11.85;;;7.28;;
7645;SDS011;3864;48.180;14.178;2023-03-16T09:27:30;12.65;;;7.35;;
7645;SDS011;3864;48.180;14.178;2023-03-16T09:29:57;13.05;;;7.75;;
7645;SDS011;3864;48.180;14.178;2023-03-16T09:32:27;9.68;;;6.60;;
7645;SDS011;3864;48.180;14.178;2023-03-16T09:34:54;16.00;;;8.23;;
7645;SDS011;3864;48.180;14.178;2023-03-16T09:37:22;10.85;;;6.50;;
7645;SDS011;3864;48.180;14.178;2023-03-16T09:39:51;8.57;;;5.30;;
7645;SDS011;3864;48.180;14.178;2023-03-16T09:42:18;7.95;;;5.43;;
7645;SDS011;3864;48.180;14.178;2023-03-16T09:44:51;6.70;;;4.28;;
7645;SDS011;3864;48.180;14.178;2023-03-16T09:47:21;6.68;;;4.00;;
7645;SDS011;3864;48.180;14.178;2023-03-16T09:49:49;5.28;;;3.80;;
7645;SDS011;3864;48.180;14.178;2023-03-16T09:52:20;5.32;;;3.72;;
7645;SDS011;3864;48.180;14.178;2023-03-16T09:54:50;6.20;;;4.25;;
7645;SDS011;3864;48.180;14.178;2023-03-16T09:57:25;5.55;;;4.07;;
7645;SDS011;3864;48.180;14.178;2023-03-16T09:59:52;5.80;;;3.80;;
7645;SDS011;3864;48.180;14.178;2023-03-16T10:05:06;6.03;;;4.18;;
7645;SDS011;3864;48.180;14.178;2023-03-16T10:07:49;5.40;;;4.15;;
7645;SDS011;3864;48.180;14.178;2023-03-16T10:10:25;5.35;;;3.50;;
7645;SDS011;3864;48.180;14.178;2023-03-16T10:12:59;4.53;;;3.28;;
7645;SDS011;3864;48.180;14.178;2023-03-16T10:15:30;6.50;;;3.70;;
7645;SDS011;3864;48.180;14.178;2023-03-16T10:17:59;5.68;;;3.83;;
7645;SDS011;3864;48.180;14.178;2023-03-16T10:20:30;6.57;;;4.03;;
7645;SDS011;3864;48.180;14.178;2023-03-16T10:22:58;4.95;;;3.65;;
7645;SDS011;3864;48.180;14.178;2023-03-16T10:25:27;4.78;;;3.35;;
7645;SDS011;3864;48.180;14.178;2023-03-16T10:27:56;4.95;;;3.40;;
7645;SDS011;3864;48.180;14.178;2023-03-16T10:30:25;5.40;;;3.40;;
7645;SDS011;3864;48.180;14.178;2023-03-16T10:32:54;5.45;;;3.40;;
7645;SDS011;3864;48.180;14.178;2023-03-16T10:35:26;5.30;;;3.67;;
7645;SDS011;3864;48.180;14.178;2023-03-16T10:37:54;5.57;;;3.85;;
7645;SDS011;3864;48.180;14.178;2023-03-16T10:40:22;5.10;;;3.55;;
7645;SDS011;3864;48.180;14.178;2023-03-16T10:42:50;4.25;;;3.58;;
7645;SDS011;3864;48.180;14.178;2023-03-16T10:45:23;5.10;;;3.50;;
7645;SDS011;3864;48.180;14.178;2023-03-16T10:47:53;5.63;;;3.60;;
7645;SDS011;3864;48.180;14.178;2023-03-16T10:50:30;5.70;;;3.70;;
7645;SDS011;3864;48.180;14.178;2023-03-16T10:52:58;5.20;;;3.78;;
7645;SDS011;3864;48.180;14.178;2023-03-16T10:55:26;5.53;;;3.97;;
7645;SDS011;3864;48.180;14.178;2023-03-16T10:57:56;5.80;;;3.80;;
7645;SDS011;3864;48.180;14.178;2023-03-16T11:00:24;5.63;;;3.90;;
7645;SDS011;3864;48.180;14.178;2023-03-16T11:02:55;5.15;;;4.10;;
7645;SDS011;3864;48.180;14.178;2023-03-16T11:05:26;4.43;;;3.50;;
7645;SDS011;3864;48.180;14.178;2023-03-16T11:07:57;4.95;;;3.88;;
7645;SDS011;3864;48.180;14.178;2023-03-16T11:10:25;6.28;;;3.90;;
7645;SDS011;3864;48.180;14.178;2023-03-16T11:12:53;4.57;;;3.58;;
7645;SDS011;3864;48.180;14.178;2023-03-16T11:15:20;4.63;;;3.88;;
7645;SDS011;3864;48.180;14.178;2023-03-16T11:17:48;12.88;;;5.45;;
7645;SDS011;3864;48.180;14.178;2023-03-16T11:20:20;5.25;;;3.97;;
7645;SDS011;3864;48.180;14.178;2023-03-16T11:22:48;6.05;;;4.00;;
7645;SDS011;3864;48.180;14.178;2023-03-16T11:25:17;6.80;;;4.40;;
7645;SDS011;3864;48.180;14.178;2023-03-16T11:27:47;4.53;;;3.70;;
7645;SDS011;3864;48.180;14.178;2023-03-16T11:30:21;5.93;;;3.58;;
7645;SDS011;3864;48.180;14.178;2023-03-16T11:32:50;5.38;;;3.88;;
7645;SDS011;3864;48.180;14.178;2023-03-16T11:35:21;5.35;;;3.78;;
7645;SDS011;3864;48.180;14.178;2023-03-16T11:37:54;5.22;;;3.72;;
7645;SDS011;3864;48.180;14.178;2023-03-16T11:40:29;4.93;;;3.80;;
7645;SDS011;3864;48.180;14.178;2023-03-16T11:42:59;4.45;;;3.60;;
7645;SDS011;3864;48.180;14.178;2023-03-16T11:48:05;4.95;;;4.45;;
7645;SDS011;3864;48.180;14.178;2023-03-16T11:50:42;5.40;;;4.55;;
7645;SDS011;3864;48.180;14.178;2023-03-16T11:53:12;5.45;;;4.57;;
7645;SDS011;3864;48.180;14.178;2023-03-16T11:55:43;5.57;;;3.72;;
7645;SDS011;3864;48.180;14.178;2023-03-16T11:58:20;4.30;;;3.33;;
7645;SDS011;3864;48.180;14.178;2023-03-16T12:00:50;4.80;;;3.13;;
7645;SDS011;3864;48.180;14.178;2023-03-16T12:03:26;6.78;;;4.13;;
7645;SDS011;3864;48.180;14.178;2023-03-16T12:05:57;5.43;;;3.53;;
7645;SDS011;3864;48.180;14.178;2023-03-16T12:08:32;5.35;;;3.33;;
7645;SDS011;3864;48.180;14.178;2023-03-16T12:11:04;4.93;;;3.55;;
7645;SDS011;3864;48.180;14.178;2023-03-16T12:13:38;4.35;;;3.30;;
7645;SDS011;3864;48.180;14.178;2023-03-16T12:16:07;4.20;;;3.47;;
7645;SDS011;3864;48.180;14.178;2023-03-16T12:18:39;3.83;;;3.28;;
7645;SDS011;3864;48.180;14.178;2023-03-16T12:21:13;4.75;;;3.33;;
7645;SDS011;3864;48.180;14.178;2023-03-16T12:23:42;3.90;;;3.33;;
7645;SDS011;3864;48.180;14.178;2023-03-16T12:26:09;6.85;;;3.15;;
7645;SDS011;3864;48.180;14.178;2023-03-16T12:28:36;3.80;;;3.30;;
7645;SDS011;3864;48.180;14.178;2023-03-16T12:31:07;4.60;;;3.30;;
7645;SDS011;3864;48.180;14.178;2023-03-16T12:33:42;5.05;;;3.63;;
7645;SDS011;3864;48.180;14.178;2023-03-16T12:36:23;4.10;;;3.05;;
7645;SDS011;3864;48.180;14.178;2023-03-16T12:38:59;3.55;;;3.10;;
7645;SDS011;3864;48.180;14.178;2023-03-16T12:41:32;3.80;;;2.80;;
7645;SDS011;3864;48.180;14.178;2023-03-16T12:44:06;4.00;;;3.00;;
7645;SDS011;3864;48.180;14.178;2023-03-16T12:46:38;5.25;;;3.22;;
7645;SDS011;3864;48.180;14.178;2023-03-16T12:49:09;5.03;;;3.42;;
7645;SDS011;3864;48.180;14.178;2023-03-16T12:51:39;3.97;;;3.08;;
7645;SDS011;3864;48.180;14.178;2023-03-16T12:54:17;3.90;;;3.00;;
7645;SDS011;3864;48.180;14.178;2023-03-16T12:56:46;4.07;;;3.10;;
7645;SDS011;3864;48.180;14.178;2023-03-16T12:59:15;3.70;;;3.08;;
7645;SDS011;3864;48.180;14.178;2023-03-16T13:01:44;4.32;;;2.92;;
7645;SDS011;3864;48.180;14.178;2023-03-16T13:04:12;3.42;;;2.65;;
7645;SDS011;3864;48.180;14.178;2023-03-16T13:06:45;3.60;;;2.65;;
7645;SDS011;3864;48.180;14.178;2023-03-16T13:09:16;5.20;;;2.78;;
7645;SDS011;3864;48.180;14.178;2023-03-16T13:11:44;3.97;;;2.70;;
7645;SDS011;3864;48.180;14.178;2023-03-16T13:14:16;3.90;;;2.92;;
7645;SDS011;3864;48.180;14.178;2023-03-16T13:17:02;4.00;;;2.85;;
7645;SDS011;3864;48.180;14.178;2023-03-16T13:19:31;3.92;;;2.70;;
7645;SDS011;3864;48.180;14.178;2023-03-16T13:24:50;4.32;;;2.63;;
7645;SDS011;3864;48.180;14.178;2023-03-16T13:27:19;5.43;;;2.50;;
7645;SDS011;3864;48.180;14.178;2023-03-16T13:29:52;4.25;;;2.70;;
7645;SDS011;3864;48.180;14.178;2023-03-16T13:32:19;3.83;;;2.88;;
7645;SDS011;3864;48.180;14.178;2023-03-16T13:34:48;4.00;;;2.58;;
7645;SDS011;3864;48.180;14.178;2023-03-16T13:37:16;3.75;;;2.85;;
7645;SDS011;3864;48.180;14.178;2023-03-16T13:39:51;3.65;;;2.55;;
7645;SDS011;3864;48.180;14.178;2023-03-16T13:42:20;3.75;;;2.70;;
7645;SDS011;3864;48.180;14.178;2023-03-16T13:44:51;4.90;;;2.70;;
7645;SDS011;3864;48.180;14.178;2023-03-16T13:47:18;2.85;;;2.47;;
7645;SDS011;3864;48.180;14.178;2023-03-16T13:49:47;3.40;;;2.60;;
7645;SDS011;3864;48.180;14.178;2023-03-16T13:52:16;3.40;;;2.30;;
7645;SDS011;3864;48.180;14.178;2023-03-16T13:54:47;2.75;;;2.30;;
7645;SDS011;3864;48.180;14.178;2023-03-16T13:57:17;4.30;;;2.55;;
7645;SDS011;3864;48.180;14.178;2023-03-16T13:59:45;4.75;;;2.70;;
7645;SDS011;3864;48.180;14.178;2023-03-16T14:02:15;3.38;;;2.25;;
7645;SDS011;3864;48.180;14.178;2023-03-16T14:04:44;3.30;;;2.30;;
7645;SDS011;3864;48.180;14.178;2023-03-16T14:07:14;4.35;;;2.63;;
7645;SDS011;3864;48.180;14.178;2023-03-16T14:09:42;4.47;;;2.80;;
7645;SDS011;3864;48.180;14.178;2023-03-16T14:12:12;4.15;;;3.00;;
7645;SDS011;3864;48.180;14.178;2023-03-16T14:14:45;4.32;;;2.38;;
7645;SDS011;3864;48.180;14.178;2023-03-16T14:17:17;3.53;;;2.70;;
7645;SDS011;3864;48.180;14.178;2023-03-16T14:19:45;3.10;;;2.55;;
7645;SDS011;3864;48.180;14.178;2023-03-16T14:22:14;4.03;;;2.70;;
7645;SDS011;3864;48.180;14.178;2023-03-16T14:24:41;3.72;;;2.78;;
7645;SDS011;3864;48.180;14.178;2023-03-16T14:27:15;4.13;;;2.65;;
7645;SDS011;3864;48.180;14.178;2023-03-16T14:29:49;3.67;;;2.58;;
7645;SDS011;3864;48.180;14.178;2023-03-16T14:32:21;4.07;;;2.60;;
7645;SDS011;3864;48.180;14.178;2023-03-16T14:34:52;4.35;;;2.40;;
7645;SDS011;3864;48.180;14.178;2023-03-16T14:37:19;4.47;;;2.35;;
7645;SDS011;3864;48.180;14.178;2023-03-16T14:39:56;3.30;;;2.30;;
7645;SDS011;3864;48.180;14.178;2023-03-16T14:42:25;3.63;;;2.33;;
7645;SDS011;3864;48.180;14.178;2023-03-16T14:44:54;5.20;;;2.50;;
7645;SDS011;3864;48.180;14.178;2023-03-16T14:47:23;5.90;;;3.08;;
7645;SDS011;3864;48.180;14.178;2023-03-16T14:49:50;3.30;;;2.08;;
7645;SDS011;3864;48.180;14.178;2023-03-16T14:52:20;5.43;;;2.72;;
7645;SDS011;3864;48.180;14.178;2023-03-16T14:54:49;4.47;;;2.50;;
7645;SDS011;3864;48.180;14.178;2023-03-16T14:59:43;4.03;;;2.50;;
7645;SDS011;3864;48.180;14.178;2023-03-16T15:02:13;5.32;;;2.45;;
7645;SDS011;3864;48.180;14.178;2023-03-16T15:04:41;3.67;;;2.13;;
7645;SDS011;3864;48.180;14.178;2023-03-16T15:07:14;3.08;;;2.10;;
7645;SDS011;3864;48.180;14.178;2023-03-16T15:09:44;2.88;;;2.10;;
7645;SDS011;3864;48.180;14.178;2023-03-16T15:12:14;3.58;;;2.08;;
7645;SDS011;3864;48.180;14.178;2023-03-16T15:14:41;2.83;;;1.90;;
7645;SDS011;3864;48.180;14.178;2023-03-16T15:17:27;2.95;;;1.88;;
7645;SDS011;3864;48.180;14.178;2023-03-16T15:19:54;3.15;;;1.77;;
7645;SDS011;3864;48.180;14.178;2023-03-16T15:22:23;3.13;;;1.77;;
7645;SDS011;3864;48.180;14.178;2023-03-16T15:24:51;3.25;;;2.10;;
7645;SDS011;3864;48.180;14.178;2023-03-16T15:27:19;3.45;;;1.90;;